Time;durP1;ratioP1;P1;durP2;ratioP2;P2;SDS_P1;SDS_P2;PMS_P1;PMS_P2;Temp;Humidity;BMP_temperature;BMP_pressure;BME280_temperature;BME280_humidity;BME280_pressure;Samples;Min_cycle;Max_cycle;Signal;HPM_P1;HPM_P2
2022/08/14 00:01:19;;;;;;;9.57;8.67;;;25.20;95.30;;;;;;6274723;22;20492;-79
2022/08/14 00:03:46;;;;;;;8.50;7.73;;;25.10;95.40;;;;;;6275637;22;20492;-77
2022/08/14 00:06:13;;;;;;;7.23;6.63;;;25.10;95.50;;;;;;6276094;22;20446;-78
2022/08/14 00:08:40;;;;;;;8.70;8.00;;;25.10;95.60;;;;;;6276329;22;21027;-76
2022/08/14 00:11:07;;;;;;;7.97;7.37;;;25.10;95.70;;;;;;6275356;22;20426;-76
2022/08/14 00:13:34;;;;;;;7.60;6.97;;;25.00;95.80;;;;;;6276277;22;20430;-76
2022/08/14 00:16:01;;;;;;;8.23;7.53;;;25.00;95.90;;;;;;6275421;22;20437;-77
2022/08/14 00:18:30;;;;;;;8.23;7.33;;;25.00;96.00;;;;;;6275492;22;20422;-76
2022/08/14 00:20:58;;;;;;;8.10;7.40;;;25.00;96.00;;;;;;6275262;22;20468;-78
2022/08/14 00:23:25;;;;;;;8.70;8.10;;;25.00;96.10;;;;;;6276218;22;20426;-77
2022/08/14 00:25:54;;;;;;;9.07;8.30;;;25.00;96.20;;;;;;6275174;22;20446;-77
2022/08/14 00:28:25;;;;;;;7.30;6.70;;;25.00;96.10;;;;;;6276130;22;20529;-76
2022/08/14 00:30:55;;;;;;;7.70;7.10;;;25.00;96.20;;;;;;6275914;22;20472;-78
2022/08/14 00:33:22;;;;;;;9.47;8.77;;;24.90;96.20;;;;;;6275841;22;20480;-78
2022/08/14 00:35:51;;;;;;;7.80;7.03;;;24.90;96.30;;;;;;6275126;22;20453;-78
2022/08/14 00:38:18;;;;;;;8.30;7.70;;;25.00;96.40;;;;;;6261780;22;20509;-78
2022/08/14 00:40:48;;;;;;;8.33;7.73;;;25.00;96.40;;;;;;6275726;22;20434;-77
2022/08/14 00:43:15;;;;;;;7.60;7.10;;;24.90;96.30;;;;;;6274482;22;20440;-78
2022/08/14 00:45:43;;;;;;;7.67;7.17;;;24.90;96.50;;;;;;6275520;22;20528;-77
2022/08/14 00:48:10;;;;;;;8.43;7.83;;;24.90;96.50;;;;;;6274497;22;20469;-76
2022/08/14 00:50:37;;;;;;;7.60;7.10;;;24.90;96.50;;;;;;6252087;22;20550;-77
2022/08/14 00:53:08;;;;;;;8.47;7.87;;;24.90;96.50;;;;;;6260419;22;20929;-78
2022/08/14 00:55:40;;;;;;;9.03;8.33;;;24.90;96.50;;;;;;6263998;22;20426;-78
2022/08/14 01:00:52;;;;;;;10.03;9.03;;;24.90;96.50;;;;;;6257335;22;20441;-75
2022/08/14 01:03:20;;;;;;;8.57;7.97;;;24.90;96.50;;;;;;6276706;22;20464;-78
2022/08/14 01:05:50;;;;;;;8.47;7.87;;;24.80;96.60;;;;;;6277531;22;20504;-79
2022/08/14 01:08:21;;;;;;;9.93;9.13;;;24.80;96.60;;;;;;6274968;22;20441;-79
2022/08/14 01:10:52;;;;;;;9.40;8.73;;;24.80;96.70;;;;;;6252217;22;20439;-78
2022/08/14 01:13:22;;;;;;;8.30;7.70;;;24.80;96.70;;;;;;6261594;22;20480;-78
2022/08/14 01:15:56;;;;;;;8.10;7.50;;;24.80;96.80;;;;;;6277439;22;20439;-77
2022/08/14 01:21:12;;;;;;;8.67;8.07;;;24.80;96.90;;;;;;6275772;22;20437;-77
2022/08/14 01:23:43;;;;;;;7.40;6.97;;;24.70;97.00;;;;;;6277497;22;20426;-76
2022/08/14 01:26:10;;;;;;;9.60;8.80;;;24.70;97.00;;;;;;6276843;22;20560;-77
2022/08/14 01:28:39;;;;;;;10.27;9.37;;;24.80;97.00;;;;;;6276812;22;20429;-79
2022/08/14 01:31:09;;;;;;;10.73;9.93;;;24.80;97.00;;;;;;6275705;22;20469;-75
2022/08/14 01:33:39;;;;;;;8.93;8.33;;;24.70;96.90;;;;;;6277043;22;20426;-75
2022/08/14 01:36:08;;;;;;;9.90;9.00;;;24.70;97.00;;;;;;6276648;22;20492;-75
2022/08/14 01:38:36;;;;;;;10.30;9.40;;;24.80;97.10;;;;;;6277042;22;20425;-75
2022/08/14 01:41:07;;;;;;;9.40;8.50;;;24.80;97.40;;;;;;6277484;22;20459;-77
2022/08/14 01:43:43;;;;;;;8.27;7.57;;;24.70;97.00;;;;;;6276664;22;20476;-76
2022/08/14 01:46:11;;;;;;;9.00;8.20;;;24.80;97.10;;;;;;6275922;22;20430;-76
2022/08/14 01:48:43;;;;;;;8.00;7.50;;;24.80;97.40;;;;;;6277205;22;20426;-77
2022/08/14 01:51:10;;;;;;;8.20;7.70;;;24.80;97.00;;;;;;6276252;22;20421;-79
2022/08/14 01:53:39;;;;;;;9.60;8.80;;;24.80;97.00;;;;;;6276757;22;20449;-79
2022/08/14 01:56:08;;;;;;;8.27;7.60;;;24.80;97.00;;;;;;6277026;22;20426;-78
2022/08/14 01:58:35;;;;;;;9.03;8.43;;;24.80;97.10;;;;;;6275638;22;20714;-79
2022/08/14 02:01:03;;;;;;;9.37;8.67;;;24.80;97.10;;;;;;6276056;22;20492;-78
2022/08/14 02:03:34;;;;;;;10.13;9.30;;;24.80;97.10;;;;;;6275231;22;20598;-75
2022/08/14 02:06:03;;;;;;;8.33;7.63;;;24.70;97.20;;;;;;6276583;22;20438;-77
2022/08/14 02:08:30;;;;;;;9.60;8.83;;;24.80;97.20;;;;;;6275883;22;20445;-79
2022/08/14 02:11:17;;;;;;;9.87;9.07;;;24.80;97.30;;;;;;6276124;22;20434;-79
2022/08/14 02:13:47;;;;;;;9.50;8.80;;;24.80;97.30;;;;;;6261898;22;20433;-75
2022/08/14 02:16:16;;;;;;;9.33;8.63;;;24.70;97.30;;;;;;6276568;22;20528;-75
2022/08/14 02:18:44;;;;;;;9.40;8.70;;;24.70;97.30;;;;;;6275884;22;20418;-76
2022/08/14 02:21:13;;;;;;;8.77;8.03;;;24.70;97.40;;;;;;6276353;22;20806;-76
2022/08/14 02:23:43;;;;;;;8.83;8.20;;;24.70;97.40;;;;;;6255798;22;20458;-78
2022/08/14 02:26:17;;;;;;;9.97;9.20;;;24.70;97.40;;;;;;6253624;22;20438;-75
2022/08/14 02:28:46;;;;;;;9.67;8.87;;;24.70;97.50;;;;;;6275647;22;20438;-78
2022/08/14 02:31:23;;;;;;;9.23;8.63;;;24.70;97.50;;;;;;6276714;22;20441;-74
2022/08/14 02:33:53;;;;;;;9.13;8.43;;;24.70;97.60;;;;;;6275496;22;20421;-76
2022/08/14 02:36:20;;;;;;;9.10;8.40;;;24.70;97.60;;;;;;6276363;22;20438;-78
2022/08/14 02:38:48;;;;;;;9.90;9.13;;;24.70;97.60;;;;;;6276201;22;20893;-78
2022/08/14 02:41:16;;;;;;;9.80;9.00;;;24.70;97.60;;;;;;6276656;22;20434;-77
2022/08/14 02:43:45;;;;;;;9.33;8.73;;;24.70;97.70;;;;;;6274820;22;20818;-76
2022/08/14 02:46:12;;;;;;;9.50;8.80;;;24.70;97.80;;;;;;6276437;22;20445;-77
2022/08/14 02:48:40;;;;;;;8.90;8.30;;;24.70;97.80;;;;;;6275604;22;20438;-78
2022/08/14 02:51:09;;;;;;;9.90;9.20;;;24.70;97.80;;;;;;6276201;22;20430;-75
2022/08/14 02:53:39;;;;;;;10.43;9.63;;;24.60;97.80;;;;;;6275962;22;20496;-76
2022/08/14 02:56:08;;;;;;;9.53;8.83;;;24.70;97.90;;;;;;6276581;22;20457;-78
2022/08/14 02:58:38;;;;;;;9.40;8.70;;;24.70;98.00;;;;;;6275030;22;20438;-78
2022/08/14 03:01:08;;;;;;;10.40;9.50;;;24.70;98.00;;;;;;6275959;22;20434;-77
2022/08/14 03:03:36;;;;;;;9.43;8.73;;;24.60;98.00;;;;;;6275080;22;20434;-79
2022/08/14 03:06:04;;;;;;;8.63;8.03;;;24.60;98.00;;;;;;6253164;22;20477;-78
2022/08/14 03:08:32;;;;;;;10.63;9.80;;;24.60;98.10;;;;;;6257337;22;20445;-76
2022/08/14 03:11:01;;;;;;;10.83;9.93;;;24.60;98.10;;;;;;6275141;22;20758;-77
2022/08/14 03:13:31;;;;;;;12.03;10.90;;;24.60;98.20;;;;;;6274879;22;20449;-76
2022/08/14 03:15:58;;;;;;;11.23;10.37;;;24.60;98.30;;;;;;6274877;22;20430;-75
2022/08/14 03:18:30;;;;;;;9.90;9.20;;;24.60;98.30;;;;;;6274572;22;20434;-75
2022/08/14 03:20:58;;;;;;;10.40;9.50;;;24.60;98.50;;;;;;6275060;22;20423;-78
2022/08/14 03:23:25;;;;;;;9.93;9.27;;;24.60;98.50;;;;;;6275596;22;20438;-76
2022/08/14 03:25:52;;;;;;;13.90;12.90;;;24.60;98.60;;;;;;6275030;22;20437;-80
2022/08/14 03:28:22;;;;;;;11.13;10.33;;;24.60;98.60;;;;;;6276514;22;20430;-77
2022/08/14 03:30:49;;;;;;;11.63;10.73;;;24.50;98.70;;;;;;6275363;22;20461;-79
2022/08/14 03:33:36;;;;;;;11.00;10.20;;;24.50;98.80;;;;;;6276584;22;20485;-77
2022/08/14 03:36:07;;;;;;;8.80;8.20;;;24.50;98.80;;;;;;6274693;22;20882;-77
2022/08/14 03:38:41;;;;;;;10.50;9.80;;;24.50;98.90;;;;;;6276243;22;20909;-79
2022/08/14 03:41:15;;;;;;;11.07;10.00;;;24.50;98.90;;;;;;6275585;22;20501;-77
2022/08/14 03:43:42;;;;;;;10.33;9.67;;;24.50;99.10;;;;;;6276804;22;20495;-76
2022/08/14 03:46:11;;;;;;;10.67;9.87;;;24.50;99.10;;;;;;6275959;22;20480;-79
2022/08/14 03:48:44;;;;;;;10.20;9.40;;;24.50;99.20;;;;;;6275720;22;20452;-76
2022/08/14 03:51:13;;;;;;;9.93;9.17;;;24.50;99.30;;;;;;6275515;22;20505;-77
2022/08/14 03:53:41;;;;;;;10.17;9.33;;;24.50;99.30;;;;;;6275179;22;20434;-78
2022/08/14 03:56:12;;;;;;;8.53;7.83;;;24.50;99.40;;;;;;6274961;22;20975;-76
2022/08/14 03:58:40;;;;;;;10.80;9.80;;;24.50;99.40;;;;;;6275834;22;20434;-79
2022/08/14 04:01:08;;;;;;;10.70;9.90;;;24.40;99.50;;;;;;6274946;22;20434;-77
2022/08/14 04:03:35;;;;;;;10.80;9.90;;;24.40;99.60;;;;;;6273108;22;20508;-76
2022/08/14 04:06:03;;;;;;;10.30;9.60;;;24.40;99.60;;;;;;6274342;22;21203;-77
2022/08/14 04:08:30;;;;;;;10.90;10.07;;;24.40;99.60;;;;;;6274711;22;20434;-75
2022/08/14 04:11:17;;;;;;;11.03;10.23;;;24.40;99.80;;;;;;6272374;22;20918;-78
2022/08/14 04:13:44;;;;;;;9.97;9.27;;;24.40;99.80;;;;;;6273332;22;20499;-76
2022/08/14 04:16:15;;;;;;;9.23;8.43;;;24.30;99.80;;;;;;6272935;22;20434;-80
2022/08/14 04:18:45;;;;;;;10.00;9.30;;;24.40;99.90;;;;;;6234964;22;20940;-76
2022/08/14 04:21:14;;;;;;;10.60;9.67;;;24.40;99.90;;;;;;6274060;22;20496;-78
2022/08/14 04:23:41;;;;;;;10.20;9.50;;;24.40;99.90;;;;;;6237292;22;20435;-77
2022/08/14 04:26:26;;;;;;;11.20;10.40;;;24.40;99.90;;;;;;6275140;22;20448;-77
2022/08/14 04:28:54;;;;;;;9.87;9.17;;;24.40;99.90;;;;;;6277874;22;20506;-79
2022/08/14 04:31:22;;;;;;;11.00;10.00;;;24.40;99.90;;;;;;6277985;22;20700;-76
2022/08/14 04:33:58;;;;;;;11.10;10.20;;;24.40;99.90;;;;;;6261397;22;20449;-76
2022/08/14 04:36:26;;;;;;;9.87;9.27;;;24.40;99.90;;;;;;6277327;22;20503;-78
2022/08/14 04:44:22;;;;;;;10.27;9.47;;;24.40;99.90;;;;;;6277816;22;20735;-75
2022/08/14 04:49:30;;;;;;;10.90;10.10;;;24.40;99.90;;;;;;6276096;22;20499;-77
2022/08/14 04:51:59;;;;;;;10.97;10.07;;;24.40;99.90;;;;;;6277850;22;20457;-76
2022/08/14 04:54:27;;;;;;;10.63;9.70;;;24.40;99.90;;;;;;6277749;22;20497;-76
2022/08/14 04:56:55;;;;;;;10.20;9.00;;;24.50;99.90;;;;;;6277509;22;20776;-79
2022/08/14 04:59:23;;;;;;;10.80;9.87;;;24.50;99.90;;;;;;6277103;22;20438;-78
2022/08/14 05:01:52;;;;;;;10.73;10.03;;;24.50;99.90;;;;;;6252421;22;20776;-79
2022/08/14 05:04:20;;;;;;;11.00;10.23;;;24.30;99.90;;;;;;6257605;22;20461;-76
2022/08/14 05:06:48;;;;;;;10.07;9.37;;;24.40;99.90;;;;;;6276819;22;20850;-79
2022/08/14 05:09:17;;;;;;;8.57;7.90;;;24.40;99.90;;;;;;6277397;22;20473;-77
2022/08/14 05:11:44;;;;;;;9.83;9.13;;;24.40;99.90;;;;;;6277154;22;20747;-76
2022/08/14 05:14:11;;;;;;;10.53;9.70;;;24.50;99.90;;;;;;6277686;22;20469;-79
2022/08/14 05:16:42;;;;;;;10.60;9.87;;;24.50;99.90;;;;;;6276122;22;20456;-77
2022/08/14 05:19:13;;;;;;;9.63;9.00;;;24.50;99.90;;;;;;6278133;22;20513;-79
2022/08/14 05:21:40;;;;;;;9.97;9.20;;;24.60;99.90;;;;;;6277409;22;20806;-79
2022/08/14 05:24:08;;;;;;;10.83;10.13;;;24.60;99.90;;;;;;6277983;22;20943;-79
2022/08/14 05:26:40;;;;;;;10.00;9.20;;;24.60;99.90;;;;;;6275998;22;20921;-77
2022/08/14 05:29:09;;;;;;;11.37;10.57;;;24.70;99.90;;;;;;6275277;22;20438;-76
2022/08/14 05:31:38;;;;;;;11.20;10.33;;;24.80;99.90;;;;;;6276302;22;20746;-77
2022/08/14 05:34:06;;;;;;;10.03;9.33;;;24.80;99.90;;;;;;6278369;22;20914;-79
2022/08/14 05:36:34;;;;;;;10.90;10.00;;;24.80;99.90;;;;;;6276396;22;20522;-79
2022/08/14 05:39:01;;;;;;;10.33;9.37;;;24.90;99.90;;;;;;6276167;22;20430;-79
2022/08/14 05:41:38;;;;;;;10.80;10.00;;;24.90;99.90;;;;;;6277062;22;20445;-75
2022/08/14 05:44:07;;;;;;;10.53;9.73;;;25.00;99.90;;;;;;6277894;22;20434;-78
2022/08/14 05:46:34;;;;;;;10.17;9.50;;;25.00;99.90;;;;;;6274455;22;20889;-78
2022/08/14 05:49:01;;;;;;;10.57;9.87;;;25.10;99.90;;;;;;6276109;22;20745;-76
2022/08/14 05:51:28;;;;;;;9.23;8.63;;;25.10;99.90;;;;;;6275275;22;20481;-76
2022/08/14 05:53:56;;;;;;;10.50;9.73;;;25.10;99.90;;;;;;6277720;22;20567;-76
2022/08/14 05:56:24;;;;;;;10.10;9.40;;;25.20;99.90;;;;;;6276097;22;20445;-79
2022/08/14 05:58:51;;;;;;;10.87;10.17;;;25.20;99.80;;;;;;6277077;22;20457;-77
2022/08/14 06:01:20;;;;;;;9.23;8.57;;;25.20;99.80;;;;;;6275149;22;20528;-77
2022/08/14 06:03:47;;;;;;;9.90;9.20;;;25.30;99.70;;;;;;6277259;22;20496;-76
2022/08/14 06:06:14;;;;;;;10.87;10.07;;;25.30;99.50;;;;;;6276826;22;20790;-79
2022/08/14 06:08:41;;;;;;;10.33;9.63;;;25.40;99.30;;;;;;6242638;22;20431;-79
2022/08/14 06:11:09;;;;;;;11.30;10.40;;;25.40;99.60;;;;;;6267994;22;20456;-77
2022/08/14 06:13:38;;;;;;;10.87;10.17;;;25.50;99.10;;;;;;6258274;22;20495;-77
2022/08/14 06:16:06;;;;;;;11.67;10.73;;;25.60;98.90;;;;;;6253980;22;20967;-79
2022/08/14 06:18:35;;;;;;;10.47;9.77;;;25.60;98.80;;;;;;6276415;22;20430;-79
2022/08/14 06:21:02;;;;;;;10.90;9.90;;;25.60;98.60;;;;;;6277093;22;20438;-79
2022/08/14 06:23:29;;;;;;;10.47;9.67;;;25.60;98.40;;;;;;6276303;22;20454;-76
2022/08/14 06:25:56;;;;;;;12.27;11.27;;;25.70;98.40;;;;;;6276624;22;20922;-80
2022/08/14 06:28:25;;;;;;;10.93;10.13;;;25.70;98.30;;;;;;6276977;22;20983;-79
2022/08/14 06:30:53;;;;;;;11.20;10.40;;;25.70;98.30;;;;;;6276392;22;20436;-77
2022/08/14 06:33:21;;;;;;;10.97;10.17;;;25.80;98.30;;;;;;6276815;22;20500;-76
2022/08/14 06:35:50;;;;;;;12.27;10.73;;;25.80;98.20;;;;;;6276419;22;20740;-76
2022/08/14 06:38:18;;;;;;;10.40;9.70;;;25.90;98.10;;;;;;6276631;22;20434;-76
2022/08/14 06:40:46;;;;;;;10.77;9.97;;;25.90;98.00;;;;;;6276039;22;20497;-79
2022/08/14 06:43:14;;;;;;;10.63;9.93;;;25.90;98.00;;;;;;6276644;22;20434;-76
2022/08/14 06:45:42;;;;;;;10.03;9.13;;;26.00;97.90;;;;;;6276052;22;20453;-78
2022/08/14 06:48:15;;;;;;;10.00;9.30;;;26.00;97.70;;;;;;6276208;22;20533;-76
2022/08/14 06:50:44;;;;;;;11.53;10.60;;;26.10;97.60;;;;;;6275948;22;20473;-79
2022/08/14 06:53:15;;;;;;;9.80;8.90;;;26.20;97.50;;;;;;6276453;22;20430;-79
2022/08/14 06:55:42;;;;;;;10.47;9.67;;;26.20;97.60;;;;;;6276086;22;20503;-75
2022/08/14 06:58:12;;;;;;;10.20;9.30;;;26.20;97.60;;;;;;6276136;22;20434;-75
2022/08/14 07:00:39;;;;;;;9.97;9.10;;;26.30;97.00;;;;;;6275804;22;20925;-78
2022/08/14 07:05:51;;;;;;;10.47;9.67;;;26.40;96.50;;;;;;6275956;22;20441;-78
2022/08/14 07:08:21;;;;;;;9.50;8.90;;;26.40;96.50;;;;;;6276672;22;20438;-80
2022/08/14 07:10:50;;;;;;;10.80;10.00;;;26.50;96.50;;;;;;6275473;22;20949;-77
2022/08/14 07:13:31;;;;;;;11.10;10.23;;;26.50;96.30;;;;;;6276704;22;20708;-77
2022/08/14 07:16:02;;;;;;;10.07;9.37;;;26.60;96.10;;;;;;6276017;22;20469;-79
2022/08/14 07:18:31;;;;;;;11.47;10.50;;;26.70;96.10;;;;;;6276143;22;20501;-79
2022/08/14 07:21:00;;;;;;;10.67;9.87;;;26.70;96.20;;;;;;6275931;22;20501;-79
2022/08/14 07:23:28;;;;;;;10.10;9.30;;;26.80;96.50;;;;;;6276335;22;20457;-80
2022/08/14 07:25:56;;;;;;;10.73;9.83;;;26.90;96.40;;;;;;6275542;22;20438;-80
2022/08/14 07:28:26;;;;;;;10.77;9.80;;;26.90;96.20;;;;;;6276586;22;20890;-77
2022/08/14 07:30:56;;;;;;;11.17;10.37;;;27.00;95.70;;;;;;6275575;22;20441;-77
2022/08/14 07:33:25;;;;;;;10.40;9.70;;;27.00;95.70;;;;;;6276153;22;20438;-80
2022/08/14 07:35:53;;;;;;;10.23;9.43;;;27.10;95.70;;;;;;6275479;22;20445;-77
2022/08/14 07:38:22;;;;;;;11.17;10.20;;;27.20;95.00;;;;;;6276523;22;20719;-80
2022/08/14 07:40:51;;;;;;;11.17;10.37;;;27.20;94.60;;;;;;6275709;22;20953;-75
2022/08/14 07:43:18;;;;;;;10.27;9.47;;;27.40;94.60;;;;;;6276330;22;20437;-77
2022/08/14 07:45:45;;;;;;;9.57;8.70;;;27.40;94.20;;;;;;6275250;22;20468;-79
2022/08/14 07:48:12;;;;;;;10.33;9.50;;;27.50;94.30;;;;;;6275973;22;20434;-76
2022/08/14 07:50:44;;;;;;;10.43;9.60;;;27.50;93.30;;;;;;6275378;22;20433;-79
2022/08/14 07:53:13;;;;;;;10.00;9.20;;;27.60;93.70;;;;;;6276246;22;20434;-76
2022/08/14 07:55:41;;;;;;;10.10;9.20;;;27.60;94.10;;;;;;6275704;22;20433;-80
2022/08/14 07:58:09;;;;;;;8.70;8.00;;;27.70;93.70;;;;;;6276455;22;20767;-79
2022/08/14 08:00:37;;;;;;;9.03;8.43;;;27.80;92.00;;;;;;6277995;22;20433;-76
2022/08/14 08:03:08;;;;;;;9.00;8.30;;;27.90;92.00;;;;;;6277747;22;20434;-77
2022/08/14 08:05:37;;;;;;;9.20;8.43;;;28.00;91.70;;;;;;6278042;22;20773;-80
2022/08/14 08:08:05;;;;;;;10.47;9.53;;;28.00;92.10;;;;;;6277122;22;20483;-76
2022/08/14 08:10:32;;;;;;;9.53;8.70;;;28.10;92.00;;;;;;6277806;22;20441;-76
2022/08/14 08:13:01;;;;;;;9.07;8.40;;;28.20;91.20;;;;;;6277356;22;20457;-76
2022/08/14 08:15:35;;;;;;;8.80;8.10;;;28.10;90.90;;;;;;6277904;22;20750;-75
2022/08/14 08:18:03;;;;;;;9.50;8.70;;;28.10;90.90;;;;;;6275559;22;20476;-77
2022/08/14 08:20:33;;;;;;;8.53;7.93;;;28.20;90.80;;;;;;6276870;22;20433;-79
2022/08/14 08:23:01;;;;;;;8.97;8.27;;;28.20;90.90;;;;;;6276881;22;20434;-79
2022/08/14 08:25:30;;;;;;;9.47;8.77;;;28.30;91.10;;;;;;6278113;22;20509;-81
2022/08/14 08:27:59;;;;;;;10.83;8.23;;;28.30;91.10;;;;;;6276905;22;20438;-80
2022/08/14 08:30:33;;;;;;;8.47;7.83;;;28.40;90.90;;;;;;6278238;22;20487;-79
2022/08/14 08:33:01;;;;;;;9.87;9.03;;;28.40;90.90;;;;;;6236045;22;20431;-80
2022/08/14 08:35:30;;;;;;;8.73;8.13;;;28.50;90.70;;;;;;6276604;22;20433;-79
2022/08/14 08:38:03;;;;;;;8.93;8.30;;;28.50;90.50;;;;;;6277095;22;20483;-79
2022/08/14 08:40:35;;;;;;;8.97;8.27;;;28.60;90.40;;;;;;6276678;22;20484;-77
2022/08/14 08:43:02;;;;;;;8.53;7.90;;;28.60;90.10;;;;;;6277167;22;20521;-80
2022/08/14 08:45:30;;;;;;;8.93;8.33;;;28.70;90.10;;;;;;6277934;22;20504;-77
2022/08/14 08:48:01;;;;;;;9.17;8.53;;;28.80;89.80;;;;;;6277323;22;20425;-75
2022/08/14 08:50:31;;;;;;;10.70;9.80;;;28.80;89.50;;;;;;6278061;22;20437;-76
2022/08/14 08:53:03;;;;;;;9.10;8.50;;;28.80;89.40;;;;;;6276506;22;20426;-78
2022/08/14 08:55:33;;;;;;;9.70;8.90;;;28.90;89.70;;;;;;6278098;22;20917;-77
2022/08/14 08:58:03;;;;;;;9.13;8.43;;;29.00;88.90;;;;;;6276528;22;20785;-76
2022/08/14 09:00:33;;;;;;;9.67;7.97;;;29.10;87.60;;;;;;6277412;22;20434;-78
2022/08/14 09:03:04;;;;;;;7.90;7.40;;;29.20;87.10;;;;;;6276425;22;20465;-76
2022/08/14 09:05:33;;;;;;;8.00;7.50;;;29.20;86.90;;;;;;6277740;22;20495;-76
2022/08/14 09:08:11;;;;;;;9.77;7.63;;;29.30;85.60;;;;;;6277185;22;20434;-76
2022/08/14 09:10:41;;;;;;;8.53;7.93;;;29.20;84.90;;;;;;6276795;22;20442;-80
2022/08/14 09:13:11;;;;;;;8.83;7.40;;;29.30;85.10;;;;;;6278485;22;20523;-76
2022/08/14 09:15:44;;;;;;;8.60;8.00;;;29.20;84.50;;;;;;6277482;22;20434;-76
2022/08/14 09:18:13;;;;;;;7.23;6.80;;;29.30;84.70;;;;;;6276018;22;20445;-76
2022/08/14 09:20:42;;;;;;;8.30;7.60;;;29.20;84.00;;;;;;6276840;22;20430;-76
2022/08/14 09:23:10;;;;;;;8.93;8.23;;;29.30;84.50;;;;;;6276766;22;20517;-76
2022/08/14 09:25:40;;;;;;;8.80;8.00;;;29.30;85.30;;;;;;6277259;22;20460;-76
2022/08/14 09:28:07;;;;;;;7.83;7.23;;;29.40;83.80;;;;;;6276781;22;20449;-76
2022/08/14 09:30:38;;;;;;;8.27;7.63;;;29.30;83.40;;;;;;6277278;22;20465;-75
2022/08/14 09:33:31;;;;;;;8.03;7.10;;;29.30;83.60;;;;;;6275530;22;20954;-76
2022/08/14 09:36:25;;;;;;;7.83;7.23;;;29.40;83.70;;;;;;6276829;22;20520;-79
2022/08/14 09:39:01;;;;;;;7.40;6.90;;;29.40;83.40;;;;;;6277660;22;20457;-76
2022/08/14 09:41:37;;;;;;;7.57;6.97;;;29.50;83.40;;;;;;6278045;22;20921;-79
2022/08/14 09:44:09;;;;;;;7.83;7.33;;;29.50;83.00;;;;;;6276738;22;20442;-80
2022/08/14 09:46:36;;;;;;;8.20;7.50;;;29.50;83.10;;;;;;6276991;22;20719;-79
2022/08/14 09:49:06;;;;;;;7.73;7.00;;;29.70;82.80;;;;;;6276837;22;20468;-80
2022/08/14 09:51:38;;;;;;;7.67;7.17;;;29.80;82.40;;;;;;6277456;22;20441;-79
2022/08/14 09:54:10;;;;;;;7.37;6.87;;;29.80;80.50;;;;;;6276994;22;20441;-77
2022/08/14 09:56:47;;;;;;;7.20;6.60;;;29.90;80.90;;;;;;6277273;22;20925;-75
2022/08/14 09:59:16;;;;;;;8.20;7.50;;;29.90;80.30;;;;;;6276490;22;20469;-76
2022/08/14 10:01:44;;;;;;;9.83;7.20;;;30.00;79.90;;;;;;6276807;22;20430;-76
2022/08/14 10:04:22;;;;;;;6.57;6.07;;;30.00;79.40;;;;;;6276373;22;20495;-75
2022/08/14 10:06:50;;;;;;;7.53;7.03;;;30.10;80.40;;;;;;6276933;22;20437;-75
2022/08/14 10:09:17;;;;;;;8.07;7.13;;;30.10;78.90;;;;;;6276930;22;20498;-77
2022/08/14 10:11:55;;;;;;;7.47;6.77;;;30.20;78.90;;;;;;6277033;22;20445;-78
2022/08/14 10:14:25;;;;;;;7.37;6.83;;;30.30;78.40;;;;;;6276718;22;20418;-76
2022/08/14 10:16:54;;;;;;;8.83;6.27;;;30.30;76.70;;;;;;6276960;22;20445;-81
2022/08/14 10:19:27;;;;;;;5.90;5.40;;;30.20;75.30;;;;;;6276358;22;20512;-76
2022/08/14 10:22:00;;;;;;;5.20;4.80;;;30.20;74.90;;;;;;6276538;22;20517;-76
2022/08/14 10:24:30;;;;;;;5.53;5.13;;;30.20;73.80;;;;;;6276184;22;20437;-77
2022/08/14 10:26:59;;;;;;;5.70;5.20;;;30.30;73.70;;;;;;6277093;22;20503;-75
2022/08/14 10:29:34;;;;;;;8.83;5.00;;;30.30;73.40;;;;;;6276258;22;20426;-76
2022/08/14 10:32:01;;;;;;;5.93;5.50;;;30.30;72.40;;;;;;6277247;22;20718;-79
2022/08/14 10:34:34;;;;;;;6.93;5.60;;;30.30;71.80;;;;;;6243426;22;20867;-80
2022/08/14 10:37:09;;;;;;;5.97;5.47;;;30.40;72.20;;;;;;6270721;22;20552;-80
2022/08/14 10:39:38;;;;;;;5.80;5.30;;;30.50;72.30;;;;;;6276385;22;20421;-79
2022/08/14 10:42:07;;;;;;;5.57;5.07;;;30.50;71.70;;;;;;6276029;22;20457;-80
2022/08/14 10:44:37;;;;;;;6.17;5.50;;;30.50;70.90;;;;;;6275958;22;20491;-80
2022/08/14 10:47:06;;;;;;;5.60;4.73;;;30.60;70.00;;;;;;6276549;22;20438;-79
2022/08/14 10:49:35;;;;;;;5.63;5.23;;;30.60;69.70;;;;;;6275812;22;20511;-80
2022/08/14 10:52:06;;;;;;;5.23;4.73;;;30.60;68.20;;;;;;6276748;22;20492;-80
2022/08/14 10:54:36;;;;;;;5.10;4.80;;;30.80;68.00;;;;;;6276244;22;20434;-79
2022/08/14 10:57:18;;;;;;;4.23;4.03;;;30.90;68.00;;;;;;6276335;22;20441;-76
2022/08/14 10:59:49;;;;;;;4.97;4.67;;;30.80;67.40;;;;;;6276386;22;20512;-76
2022/08/14 11:02:21;;;;;;;6.33;5.13;;;30.90;67.30;;;;;;6275905;22;20465;-80
2022/08/14 11:05:16;;;;;;;5.30;4.90;;;30.90;67.50;;;;;;6276344;22;20500;-76
2022/08/14 11:07:55;;;;;;;5.43;4.87;;;30.90;67.90;;;;;;6255275;22;20430;-76
2022/08/14 11:10:25;;;;;;;5.40;4.83;;;30.90;68.30;;;;;;6276601;22;20492;-79
2022/08/14 11:12:58;;;;;;;5.07;4.67;;;30.90;68.50;;;;;;6276105;22;20450;-76
2022/08/14 11:15:27;;;;;;;5.07;4.67;;;30.90;67.80;;;;;;6276097;22;20426;-76
2022/08/14 11:17:55;;;;;;;5.00;4.70;;;30.90;67.40;;;;;;6276020;22;20426;-79
2022/08/14 11:20:26;;;;;;;5.23;4.83;;;30.90;66.10;;;;;;6275902;22;20505;-79
2022/08/14 11:22:57;;;;;;;6.00;5.50;;;30.90;66.30;;;;;;6275838;22;20508;-79
2022/08/14 11:25:28;;;;;;;5.67;5.30;;;30.90;66.20;;;;;;6276406;22;20426;-79
2022/08/14 11:28:06;;;;;;;5.63;5.10;;;30.90;66.30;;;;;;6275951;22;20421;-79
2022/08/14 11:30:37;;;;;;;7.13;5.30;;;30.90;66.70;;;;;;6275685;22;20490;-76
2022/08/14 11:33:05;;;;;;;5.70;5.20;;;30.90;67.00;;;;;;6276278;22;20910;-79
2022/08/14 11:35:33;;;;;;;6.23;5.00;;;30.90;67.30;;;;;;6275356;22;20464;-79
2022/08/14 11:38:04;;;;;;;5.30;4.87;;;30.90;67.40;;;;;;6275262;22;20488;-79
2022/08/14 11:40:34;;;;;;;5.83;5.13;;;30.90;67.60;;;;;;6276328;22;20488;-79
2022/08/14 11:43:03;;;;;;;6.27;5.50;;;30.90;66.40;;;;;;6276052;22;20425;-79
2022/08/14 11:45:33;;;;;;;5.47;5.07;;;30.80;66.60;;;;;;6275863;22;20453;-79
2022/08/14 11:48:01;;;;;;;4.80;4.50;;;30.80;65.90;;;;;;6275509;22;20503;-79
2022/08/14 11:50:30;;;;;;;5.20;4.90;;;30.80;65.10;;;;;;6276074;22;20468;-79
2022/08/14 11:53:01;;;;;;;9.60;5.07;;;30.70;64.70;;;;;;6275694;22;20434;-76
2022/08/14 11:55:34;;;;;;;5.37;4.90;;;30.70;64.30;;;;;;6276099;22;20438;-79
2022/08/14 11:58:07;;;;;;;5.27;4.93;;;30.80;63.40;;;;;;6275571;22;20905;-76
2022/08/14 12:00:34;;;;;;;5.83;5.10;;;30.80;63.50;;;;;;6275658;22;20440;-76
2022/08/14 12:03:02;;;;;;;4.57;4.10;;;30.80;63.40;;;;;;6275574;22;20508;-77
2022/08/14 12:05:34;;;;;;;6.70;4.97;;;30.90;63.40;;;;;;6276007;22;20734;-76
2022/08/14 12:08:06;;;;;;;9.23;5.30;;;30.90;62.80;;;;;;6275069;22;20438;-77
2022/08/14 12:10:33;;;;;;;5.50;5.00;;;30.90;62.80;;;;;;6273978;22;20508;-77
2022/08/14 12:13:11;;;;;;;6.43;5.70;;;30.90;63.00;;;;;;6275414;22;20457;-77
2022/08/14 12:15:38;;;;;;;5.90;5.43;;;30.90;62.10;;;;;;6275689;22;20436;-77
2022/08/14 12:18:06;;;;;;;6.20;5.70;;;30.90;62.10;;;;;;6234757;22;20426;-79
2022/08/14 12:20:45;;;;;;;5.77;5.47;;;30.90;61.80;;;;;;6275829;22;20525;-80
2022/08/14 12:23:23;;;;;;;6.67;6.00;;;30.80;61.60;;;;;;6275718;22;20426;-80
2022/08/14 12:25:50;;;;;;;6.60;5.53;;;30.90;61.20;;;;;;6274923;22;20434;-80
2022/08/14 12:28:17;;;;;;;5.57;5.23;;;30.90;61.40;;;;;;6275163;22;20433;-80
2022/08/14 12:30:47;;;;;;;5.80;5.40;;;30.90;61.30;;;;;;6274746;22;20437;-77
2022/08/14 12:33:24;;;;;;;5.77;5.27;;;30.90;60.50;;;;;;6275289;22;20452;-80
2022/08/14 12:35:52;;;;;;;5.37;4.80;;;31.00;60.60;;;;;;6274779;22;20430;-80
2022/08/14 12:38:31;;;;;;;6.70;6.20;;;31.00;60.90;;;;;;6275977;22;20489;-79
2022/08/14 12:40:58;;;;;;;6.17;5.67;;;31.00;60.30;;;;;;6276038;22;20440;-78
2022/08/14 12:43:44;;;;;;;5.90;5.50;;;31.00;60.60;;;;;;6275892;22;20426;-75
2022/08/14 12:46:22;;;;;;;6.13;5.63;;;31.10;61.00;;;;;;6276305;22;20484;-78
2022/08/14 12:48:49;;;;;;;6.87;6.27;;;31.20;61.40;;;;;;6277930;22;20433;-81
2022/08/14 12:51:19;;;;;;;6.33;5.93;;;31.20;62.10;;;;;;6276280;22;20429;-80
2022/08/14 12:53:48;;;;;;;5.90;5.50;;;31.20;61.30;;;;;;6277535;22;20449;-77
2022/08/14 12:56:18;;;;;;;5.10;4.80;;;31.20;61.50;;;;;;6276974;22;20450;-77
2022/08/14 12:58:50;;;;;;;6.13;5.63;;;31.20;61.60;;;;;;6277667;22;20462;-77
2022/08/14 13:01:22;;;;;;;5.37;5.00;;;31.30;61.30;;;;;;6277301;22;20414;-78
2022/08/14 13:03:49;;;;;;;6.67;6.00;;;31.30;61.30;;;;;;6277229;22;20442;-80
2022/08/14 13:06:18;;;;;;;5.70;5.20;;;31.30;59.80;;;;;;6277420;22;20480;-80
2022/08/14 13:08:45;;;;;;;5.30;4.90;;;31.30;59.80;;;;;;6277155;22;20433;-81
2022/08/14 13:11:17;;;;;;;5.17;4.77;;;31.20;59.60;;;;;;6277361;22;20458;-80
2022/08/14 13:13:44;;;;;;;4.97;4.77;;;31.20;59.70;;;;;;6277543;22;20484;-81